Time;durP1;ratioP1;P1;durP2;ratioP2;P2;SDS_P1;SDS_P2;PMS_P1;PMS_P2;Temp;Humidity;BMP_temperature;BMP_pressure;BME280_temperature;BME280_humidity;BME280_pressure;Samples;Min_cycle;Max_cycle;Signal;HPM_P1;HPM_P2
2023/05/22 00:00:43;;;;;;;;;;;;;;;;;;5044923;28;19923;-84
2023/05/22 00:03:30;;;;;;;;;;;;;;;;;;5038931;28;19927;-85
2023/05/22 00:06:17;;;;;;;;;;;;;;;;;;5038609;28;19928;-84
2023/05/22 00:09:03;;;;;;;;;;;;;;;;;;5038959;28;19925;-85
2023/05/22 00:11:50;;;;;;;;;;;;;;;;;;5038183;28;19916;-85
2023/05/22 00:14:36;;;;;;;;;;;;;;;;;;5045047;28;19923;-84
2023/05/22 00:17:23;;;;;;;;;;;;;;;;;;5029269;28;19921;-84
2023/05/22 00:20:10;;;;;;;;;;;;;;;;;;5052222;28;19917;-83
2023/05/22 00:22:57;;;;;;;;;;;;;;;;;;5048520;28;19917;-85
2023/05/22 00:25:44;;;;;;;;;;;;;;;;;;5040694;28;19925;-83
2023/05/22 00:28:30;;;;;;;;;;;;;;;;;;5055466;28;20389;-84
2023/05/22 00:31:17;;;;;;;;;;;;;;;;;;5059234;28;20327;-85
2023/05/22 00:34:03;;;;;;;;;;;;;;;;;;5061439;28;19923;-83
2023/05/22 00:36:50;;;;;;;;;;;;;;;;;;5040848;28;19924;-83
2023/05/22 00:39:36;;;;;;;;;;;;;;;;;;5047831;28;19921;-84
2023/05/22 00:42:23;;;;;;;;;;;;;;;;;;5056673;28;19916;-83
2023/05/22 00:45:09;;;;;;;;;;;;;;;;;;5033296;28;19940;-83
2023/05/22 00:47:56;;;;;;;;;;;;;;;;;;5048880;28;19940;-84
2023/05/22 00:50:42;;;;;;;;;;;;;;;;;;5044784;28;19924;-84
2023/05/22 00:53:29;;;;;;;;;;;;;;;;;;5052397;28;19920;-84
2023/05/22 00:56:16;;;;;;;;;;;;;;;;;;5049505;28;19917;-84
2023/05/22 00:59:03;;;;;;;;;;;;;;;;;;5061033;28;19920;-86
2023/05/22 01:01:49;;;;;;;;;;;;;;;;;;5053228;28;19916;-84
2023/05/22 01:04:36;;;;;;;;;;;;;;;;;;5047745;28;19921;-84
2023/05/22 01:07:22;;;;;;;;;;;;;;;;;;5057702;28;19916;-84
2023/05/22 01:10:09;;;;;;;;;;;;;;;;;;5047865;28;19928;-84
2023/05/22 01:12:55;;;;;;;;;;;;;;;;;;5050669;28;19923;-85
2023/05/22 01:15:42;;;;;;;;;;;;;;;;;;5049846;28;19924;-85
2023/05/22 01:18:29;;;;;;;;;;;;;;;;;;5063720;28;19935;-84
2023/05/22 01:21:17;;;;;;;;;;;;;;;;;;5052483;28;19920;-85
2023/05/22 01:24:05;;;;;;;;;;;;;;;;;;5040611;28;19928;-85
2023/05/22 01:26:52;;;;;;;;;;;;;;;;;;5038625;28;19918;-85
2023/05/22 01:29:39;;;;;;;;;;;;;;;;;;5051797;28;19921;-85
2023/05/22 01:32:27;;;;;;;;;;;;;;;;;;5029137;28;19917;-85
2023/05/22 01:35:14;;;;;;;;;;;;;;;;;;5041195;28;19917;-84
2023/05/22 01:38:00;;;;;;;;;;;;;;;;;;5028651;28;19943;-85
2023/05/22 01:40:47;;;;;;;;;;;;;;;;;;5048003;28;19928;-84
2023/05/22 01:43:33;;;;;;;;;;;;;;;;;;5054292;28;19920;-84
2023/05/22 01:46:20;;;;;;;;;;;;;;;;;;5034361;28;20407;-85
2023/05/22 01:49:07;;;;;;;;;;;;;;;;;;5051391;28;19920;-84
2023/05/22 01:51:54;;;;;;;;;;;;;;;;;;5059614;28;20278;-84
2023/05/22 01:54:41;;;;;;;;;;;;;;;;;;5045704;28;20380;-84
2023/05/22 01:57:27;;;;;;;;;;;;;;;;;;5053743;28;20300;-84
2023/05/22 02:00:14;;;;;;;;;;;;;;;;;;5036213;28;20300;-84
2023/05/22 02:03:00;;;;;;;;;;;;;;;;;;5041044;28;19913;-84
2023/05/22 02:05:47;;;;;;;;;;;;;;;;;;5037161;28;19976;-84
2023/05/22 02:08:33;;;;;;;;;;;;;;;;;;5041772;28;19916;-84
2023/05/22 02:11:20;;;;;;;;;;;;;;;;;;5043153;28;19927;-84
2023/05/22 02:14:07;;;;;;;;;;;;;;;;;;5060207;28;19951;-84
2023/05/22 02:16:55;;;;;;;;;;;;;;;;;;5057138;28;19928;-82
2023/05/22 02:19:42;;;;;;;;;;;;;;;;;;5059626;28;19920;-83
2023/05/22 02:22:28;;;;;;;;;;;;;;;;;;5051756;28;19924;-81
2023/05/22 02:25:15;;;;;;;;;;;;;;;;;;5055786;28;19955;-83
2023/05/22 02:28:02;;;;;;;;;;;;;;;;;;5042657;28;19920;-83
2023/05/22 02:30:48;;;;;;;;;;;;;;;;;;5048130;28;19940;-84
2023/05/22 02:33:35;;;;;;;;;;;;;;;;;;5063322;28;19913;-82
2023/05/22 02:36:21;;;;;;;;;;;;;;;;;;5066101;28;19921;-82
2023/05/22 02:39:08;;;;;;;;;;;;;;;;;;5052085;28;20394;-82
2023/05/22 02:41:55;;;;;;;;;;;;;;;;;;5057393;28;20384;-82
2023/05/22 02:44:41;;;;;;;;;;;;;;;;;;5062164;28;20030;-83
2023/05/22 02:47:27;;;;;;;;;;;;;;;;;;5039575;28;19920;-83
2023/05/22 02:50:14;;;;;;;;;;;;;;;;;;5041692;28;19917;-84
2023/05/22 02:53:00;;;;;;;;;;;;;;;;;;5045289;28;19972;-84
2023/05/22 02:55:47;;;;;;;;;;;;;;;;;;5063546;28;20395;-85
2023/05/22 02:58:33;;;;;;;;;;;;;;;;;;5053864;28;19927;-83
2023/05/22 03:01:20;;;;;;;;;;;;;;;;;;5054026;28;20273;-84
2023/05/22 03:04:07;;;;;;;;;;;;;;;;;;5042080;28;19922;-84
2023/05/22 03:06:54;;;;;;;;;;;;;;;;;;5060191;28;19931;-83
2023/05/22 03:09:40;;;;;;;;;;;;;;;;;;5035701;28;19923;-84
2023/05/22 03:12:27;;;;;;;;;;;;;;;;;;5042421;28;20484;-80
2023/05/22 03:15:13;;;;;;;;;;;;;;;;;;5040609;28;19925;-80
2023/05/22 03:18:01;;;;;;;;;;;;;;;;;;5036543;28;19927;-80
2023/05/22 03:20:47;;;;;;;;;;;;;;;;;;5046018;28;20022;-80
2023/05/22 03:23:34;;;;;;;;;;;;;;;;;;5051414;28;19923;-80
2023/05/22 03:26:20;;;;;;;;;;;;;;;;;;5052005;28;19924;-81
2023/05/22 03:29:07;;;;;;;;;;;;;;;;;;5028101;28;19913;-80
2023/05/22 03:31:53;;;;;;;;;;;;;;;;;;5043805;28;20296;-81
2023/05/22 03:34:40;;;;;;;;;;;;;;;;;;5043663;28;19921;-81
2023/05/22 03:37:26;;;;;;;;;;;;;;;;;;5040172;28;19929;-80
2023/05/22 03:40:13;;;;;;;;;;;;;;;;;;5057579;28;19920;-81
2023/05/22 03:42:59;;;;;;;;;;;;;;;;;;5040036;28;20312;-80
2023/05/22 03:45:46;;;;;;;;;;;;;;;;;;5047360;28;19928;-82
2023/05/22 03:48:32;;;;;;;;;;;;;;;;;;5046006;28;19927;-80
2023/05/22 03:51:19;;;;;;;;;;;;;;;;;;5040965;28;19921;-80
2023/05/22 03:54:05;;;;;;;;;;;;;;;;;;5039691;28;19913;-83
2023/05/22 03:56:52;;;;;;;;;;;;;;;;;;5036615;28;19931;-81
2023/05/22 03:59:38;;;;;;;;;;;;;;;;;;5041936;28;19948;-80
2023/05/22 04:02:25;;;;;;;;;;;;;;;;;;5033165;28;20309;-81
2023/05/22 04:05:11;;;;;;;;;;;;;;;;;;5040452;28;19932;-80
2023/05/22 04:07:58;;;;;;;;;;;;;;;;;;5034564;28;20292;-80
2023/05/22 04:10:47;;;;;;;;;;;;;;;;;;5043039;28;19927;-80
2023/05/22 04:13:34;;;;;;;;;;;;;;;;;;5038959;28;19921;-80
2023/05/22 04:16:21;;;;;;;;;;;;;;;;;;5030461;28;19932;-81
2023/05/22 04:19:08;;;;;;;;;;;;;;;;;;5034405;28;19917;-79
2023/05/22 04:21:54;;;;;;;;;;;;;;;;;;5043202;28;20011;-79
2023/05/22 04:24:41;;;;;;;;;;;;;;;;;;5037168;28;19924;-82
2023/05/22 04:27:28;;;;;;;;;;;;;;;;;;5038752;28;20383;-79
2023/05/22 04:30:15;;;;;;;;;;;;;;;;;;5043396;28;19931;-81
2023/05/22 04:33:04;;;;;;;;;;;;;;;;;;5035801;28;19924;-82
2023/05/22 04:35:50;;;;;;;;;;;;;;;;;;5039448;28;20391;-82
2023/05/22 04:38:37;;;;;;;;;;;;;;;;;;5042900;28;19921;-80
2023/05/22 04:41:26;;;;;;;;;;;;;;;;;;5049566;28;19932;-81
2023/05/22 04:44:13;;;;;;;;;;;;;;;;;;5038177;28;20680;-81
2023/05/22 04:47:00;;;;;;;;;;;;;;;;;;5034009;28;19936;-80
2023/05/22 04:49:47;;;;;;;;;;;;;;;;;;5036016;28;20390;-81
2023/05/22 04:52:34;;;;;;;;;;;;;;;;;;5042163;28;19927;-81
2023/05/22 04:55:23;;;;;;;;;;;;;;;;;;5037791;28;19918;-82
2023/05/22 04:58:10;;;;;;;;;;;;;;;;;;5034630;28;19940;-81
2023/05/22 05:00:57;;;;;;;;;;;;;;;;;;5038467;28;19919;-81
2023/05/22 05:03:44;;;;;;;;;;;;;;;;;;5042367;28;19923;-79
2023/05/22 05:06:31;;;;;;;;;;;;;;;;;;5042779;28;19936;-79
2023/05/22 05:09:17;;;;;;;;;;;;;;;;;;5027119;28;19967;-79
2023/05/22 05:12:04;;;;;;;;;;;;;;;;;;5038351;28;19916;-80
2023/05/22 05:14:50;;;;;;;;;;;;;;;;;;5035660;28;19928;-81
2023/05/22 05:17:37;;;;;;;;;;;;;;;;;;5026604;28;19925;-81
2023/05/22 05:20:23;;;;;;;;;;;;;;;;;;5014310;28;19927;-80
2023/05/22 05:23:10;;;;;;;;;;;;;;;;;;5022578;28;19945;-81
2023/05/22 05:25:56;;;;;;;;;;;;;;;;;;5022325;28;19960;-84
2023/05/22 05:28:43;;;;;;;;;;;;;;;;;;5015606;28;19917;-80
2023/05/22 05:31:29;;;;;;;;;;;;;;;;;;5018492;28;19926;-80
2023/05/22 05:34:16;;;;;;;;;;;;;;;;;;5022709;28;19920;-81
2023/05/22 05:37:02;;;;;;;;;;;;;;;;;;5011892;28;19913;-80
2023/05/22 05:39:49;;;;;;;;;;;;;;;;;;5011245;28;19921;-81
2023/05/22 05:42:35;;;;;;;;;;;;;;;;;;5015801;28;19940;-79
2023/05/22 05:45:22;;;;;;;;;;;;;;;;;;5025906;28;19927;-79
2023/05/22 05:48:08;;;;;;;;;;;;;;;;;;5017234;28;20399;-78
2023/05/22 05:50:55;;;;;;;;;;;;;;;;;;5016884;28;19918;-78
2023/05/22 05:53:41;;;;;;;;;;;;;;;;;;5019241;28;20361;-79
2023/05/22 05:56:28;;;;;;;;;;;;;;;;;;5014320;28;19918;-79
2023/05/22 05:59:14;;;;;;;;;;;;;;;;;;5024917;28;19917;-80
2023/05/22 06:02:01;;;;;;;;;;;;;;;;;;5018914;28;20009;-79
2023/05/22 06:04:48;;;;;;;;;;;;;;;;;;5031998;28;19929;-80
2023/05/22 06:07:38;;;;;;;;;;;;;;;;;;5017560;28;19948;-79
2023/05/22 06:10:25;;;;;;;;;;;;;;;;;;5009406;28;19928;-79
2023/05/22 06:13:12;;;;;;;;;;;;;;;;;;5017114;28;19924;-79
2023/05/22 06:15:58;;;;;;;;;;;;;;;;;;5011526;28;19929;-80
2023/05/22 06:18:45;;;;;;;;;;;;;;;;;;5014357;28;19929;-79
2023/05/22 06:21:32;;;;;;;;;;;;;;;;;;5017690;28;19926;-78
2023/05/22 06:24:18;;;;;;;;;;;;;;;;;;5011092;28;19925;-80
2023/05/22 06:27:04;;;;;;;;;;;;;;;;;;5021382;28;19925;-80
2023/05/22 06:29:51;;;;;;;;;;;;;;;;;;5016883;28;20288;-86
2023/05/22 06:32:37;;;;;;;;;;;;;;;;;;5017290;28;19924;-86
2023/05/22 06:35:24;;;;;;;;;;;;;;;;;;5022122;28;20341;-85
2023/05/22 06:38:10;;;;;;;;;;;;;;;;;;5021606;28;19928;-86
2023/05/22 06:40:57;;;;;;;;;;;;;;;;;;5025580;28;19931;-87
2023/05/22 06:43:43;;;;;;;;;;;;;;;;;;5020076;28;19917;-86
2023/05/22 06:46:30;;;;;;;;;;;;;;;;;;5019581;28;19929;-86
2023/05/22 06:49:16;;;;;;;;;;;;;;;;;;5017903;28;19925;-87
2023/05/22 06:52:03;;;;;;;;;;;;;;;;;;5022590;28;19920;-86
2023/05/22 06:54:49;;;;;;;;;;;;;;;;;;5025204;28;19927;-86
2023/05/22 06:57:36;;;;;;;;;;;;;;;;;;5010663;28;19921;-86
2023/05/22 07:00:22;;;;;;;;;;;;;;;;;;5024546;28;19928;-86
2023/05/22 07:03:10;;;;;;;;;;;;;;;;;;5006221;28;19932;-86
2023/05/22 07:05:58;;;;;;;;;;;;;;;;;;5020132;28;20343;-86
2023/05/22 07:08:44;;;;;;;;;;;;;;;;;;5017820;28;19917;-87
2023/05/22 07:11:31;;;;;;;;;;;;;;;;;;5013753;28;19918;-86
2023/05/22 07:14:17;;;;;;;;;;;;;;;;;;5031441;28;19916;-87
2023/05/22 07:17:03;;;;;;;;;;;;;;;;;;5038611;28;19955;-87
2023/05/22 07:19:50;;;;;;;;;;;;;;;;;;5032990;28;19924;-86
2023/05/22 07:22:37;;;;;;;;;;;;;;;;;;5048623;28;19916;-86
2023/05/22 07:25:23;;;;;;;;;;;;;;;;;;5029987;28;20585;-86
2023/05/22 07:28:10;;;;;;;;;;;;;;;;;;5039404;28;20180;-86
2023/05/22 07:30:56;;;;;;;;;;;;;;;;;;5040883;28;20364;-87
2023/05/22 07:33:43;;;;;;;;;;;;;;;;;;5045834;28;19916;-87
2023/05/22 07:36:30;;;;;;;;;;;;;;;;;;5039524;28;19928;-86
2023/05/22 07:39:17;;;;;;;;;;;;;;;;;;5034123;28;19913;-87
2023/05/22 07:42:03;;;;;;;;;;;;;;;;;;5034344;28;20286;-87
2023/05/22 07:44:50;;;;;;;;;;;;;;;;;;5042145;28;19927;-88
2023/05/22 07:47:36;;;;;;;;;;;;;;;;;;5043525;28;19947;-87
2023/05/22 07:50:25;;;;;;;;;;;;;;;;;;5039562;28;19929;-87
2023/05/22 07:53:11;;;;;;;;;;;;;;;;;;5043272;28;19921;-87
2023/05/22 07:55:58;;;;;;;;;;;;;;;;;;5044020;28;19929;-87
2023/05/22 07:58:47;;;;;;;;;;;;;;;;;;5030794;28;20300;-87
2023/05/22 08:01:33;;;;;;;;;;;;;;;;;;5040088;28;19921;-86
2023/05/22 08:04:20;;;;;;;;;;;;;;;;;;5042920;28;20539;-87
2023/05/22 08:07:06;;;;;;;;;;;;;;;;;;5042475;28;20504;-87
2023/05/22 08:09:53;;;;;;;;;;;;;;;;;;5043781;28;19924;-87
2023/05/22 08:12:39;;;;;;;;;;;;;;;;;;5044793;28;19921;-84
2023/05/22 08:15:26;;;;;;;;;;;;;;;;;;5039670;28;19931;-86
2023/05/22 08:18:12;;;;;;;;;;;;;;;;;;5042636;28;19921;-87
2023/05/22 08:20:59;;;;;;;;;;;;;;;;;;5051820;28;20288;-87
2023/05/22 08:23:46;;;;;;;;;;;;;;;;;;5043431;28;19927;-86
2023/05/22 08:26:32;;;;;;;;;;;;;;;;;;5044358;28;19925;-85
2023/05/22 08:29:19;;;;;;;;;;;;;;;;;;5037778;28;19924;-87
2023/05/22 08:32:05;;;;;;;;;;;;;;;;;;5039342;28;19952;-87
2023/05/22 08:34:52;;;;;;;;;;;;;;;;;;5032234;28;20478;-87
2023/05/22 08:37:38;;;;;;;;;;;;;;;;;;5042539;28;19919;-87
2023/05/22 08:40:25;;;;;;;;;;;;;;;;;;5040996;28;19939;-88
2023/05/22 08:43:11;;;;;;;;;;;;;;;;;;5041368;28;19921;-87
2023/05/22 08:45:58;;;;;;;;;;;;;;;;;;5046864;28;19924;-87
2023/05/22 08:48:44;;;;;;;;;;;;;;;;;;5035162;28;20292;-87
2023/05/22 08:51:31;;;;;;;;;;;;;;;;;;5030471;28;20489;-89
2023/05/22 08:54:18;;;;;;;;;;;;;;;;;;5045643;28;19917;-88
2023/05/22 08:57:04;;;;;;;;;;;;;;;;;;5043843;28;19924;-87
2023/05/22 08:59:51;;;;;;;;;;;;;;;;;;5043892;28;19924;-88
2023/05/22 09:02:38;;;;;;;;;;;;;;;;;;5049342;28;19920;-88
2023/05/22 09:05:25;;;;;;;;;;;;;;;;;;5043601;28;19929;-86
2023/05/22 09:08:12;;;;;;;;;;;;;;;;;;5039092;28;19924;-86
2023/05/22 09:10:58;;;;;;;;;;;;;;;;;;5033080;28;19921;-86
2023/05/22 09:13:45;;;;;;;;;;;;;;;;;;5037862;28;19927;-87
2023/05/22 09:16:31;;;;;;;;;;;;;;;;;;5043029;28;19929;-87
2023/05/22 09:19:18;;;;;;;;;;;;;;;;;;5037637;28;19917;-87
2023/05/22 09:22:05;;;;;;;;;;;;;;;;;;5034842;28;19916;-86
2023/05/22 09:24:51;;;;;;;;;;;;;;;;;;5040678;28;19956;-87
2023/05/22 09:27:38;;;;;;;;;;;;;;;;;;5035043;28;19931;-87
2023/05/22 09:30:24;;;;;;;;;;;;;;;;;;5047185;28;19924;-87
2023/05/22 09:33:11;;;;;;;;;;;;;;;;;;5038953;28;20497;-87
2023/05/22 09:35:57;;;;;;;;;;;;;;;;;;5040452;28;19920;-88
2023/05/22 09:38:44;;;;;;;;;;;;;;;;;;5040023;28;19920;-87
2023/05/22 09:41:30;;;;;;;;;;;;;;;;;;5038073;28;19921;-87
2023/05/22 09:44:17;;;;;;;;;;;;;;;;;;5044702;28;19912;-88
2023/05/22 09:47:03;;;;;;;;;;;;;;;;;;5027154;28;20443;-87
2023/05/22 09:49:50;;;;;;;;;;;;;;;;;;5040181;28;19916;-87
2023/05/22 09:52:36;;;;;;;;;;;;;;;;;;5038827;28;20382;-87
2023/05/22 09:55:23;;;;;;;;;;;;;;;;;;5040557;28;19920;-87
2023/05/22 09:58:09;;;;;;;;;;;;;;;;;;5040195;28;19917;-87
2023/05/22 10:00:56;;;;;;;;;;;;;;;;;;5019673;28;19917;-87
2023/05/22 10:03:43;;;;;;;;;;;;;;;;;;5037869;28;19917;-88
2023/05/22 10:06:30;;;;;;;;;;;;;;;;;;5041544;28;19925;-87
2023/05/22 10:09:16;;;;;;;;;;;;;;;;;;5038870;28;19921;-87
2023/05/22 10:12:03;;;;;;;;;;;;;;;;;;5030185;28;19920;-86
2023/05/22 10:14:49;;;;;;;;;;;;;;;;;;5030038;28;19921;-86
2023/05/22 10:17:36;;;;;;;;;;;;;;;;;;5022748;28;19921;-86
2023/05/22 10:20:23;;;;;;;;;;;;;;;;;;5023384;28;19917;-86
2023/05/22 10:23:10;;;;;;;;;;;;;;;;;;5015383;28;19921;-90
2023/05/22 10:25:56;;;;;;;;;;;;;;;;;;5014585;28;19944;-84
2023/05/22 10:28:43;;;;;;;;;;;;;;;;;;5016186;28;19932;-83
2023/05/22 10:31:29;;;;;;;;;;;;;;;;;;5020042;28;19927;-84
2023/05/22 10:34:16;;;;;;;;;;;;;;;;;;5011000;28;20361;-83
2023/05/22 10:37:02;;;;;;;;;;;;;;;;;;5004974;28;19920;-82
2023/05/22 10:39:48;;;;;;;;;;;;;;;;;;5005020;28;19921;-82
2023/05/22 10:42:35;;;;;;;;;;;;;;;;;;5003555;28;19924;-83
2023/05/22 10:45:21;;;;;;;;;;;;;;;;;;5014306;28;19920;-82
2023/05/22 10:48:08;;;;;;;;;;;;;;;;;;5024223;28;19931;-82
2023/05/22 10:50:55;;;;;;;;;;;;;;;;;;5018737;28;21206;-84
2023/05/22 10:53:41;;;;;;;;;;;;;;;;;;5019333;28;20218;-84
2023/05/22 10:56:28;;;;;;;;;;;;;;;;;;5011034;28;19917;-82
2023/05/22 10:59:14;;;;;;;;;;;;;;;;;;5022040;28;19925;-82
2023/05/22 11:02:01;;;;;;;;;;;;;;;;;;5022599;28;20307;-83
2023/05/22 11:04:47;;;;;;;;;;;;;;;;;;5017156;28;19928;-83
2023/05/22 11:07:34;;;;;;;;;;;;;;;;;;5019853;28;19925;-86
2023/05/22 11:10:21;;;;;;;;;;;;;;;;;;5023962;28;19932;-85
2023/05/22 11:13:07;;;;;;;;;;;;;;;;;;5021701;28;20237;-85
2023/05/22 11:15:55;;;;;;;;;;;;;;;;;;5036992;28;19936;-85
2023/05/22 11:18:41;;;;;;;;;;;;;;;;;;5044044;28;19928;-85
2023/05/22 11:21:28;;;;;;;;;;;;;;;;;;5038720;28;19916;-86
2023/05/22 11:24:14;;;;;;;;;;;;;;;;;;5036372;28;19921;-86
2023/05/22 11:27:01;;;;;;;;;;;;;;;;;;5043925;28;20391;-86
2023/05/22 11:29:48;;;;;;;;;;;;;;;;;;5040896;28;19928;-87
2023/05/22 11:32:34;;;;;;;;;;;;;;;;;;5038799;28;19927;-84
2023/05/22 11:35:21;;;;;;;;;;;;;;;;;;5037973;28;19928;-86
2023/05/22 11:38:07;;;;;;;;;;;;;;;;;;5035301;28;20284;-86
2023/05/22 11:40:54;;;;;;;;;;;;;;;;;;5051217;28;19931;-86
2023/05/22 11:43:40;;;;;;;;;;;;;;;;;;5047876;28;19934;-87
2023/05/22 11:46:28;;;;;;;;;;;;;;;;;;5039192;28;20461;-79
2023/05/22 11:49:16;;;;;;;;;;;;;;;;;;5046794;28;20261;-86
2023/05/22 11:52:02;;;;;;;;;;;;;;;;;;5041565;28;20296;-84
2023/05/22 11:54:48;;;;;;;;;;;;;;;;;;5036385;28;19924;-87
2023/05/22 11:57:35;;;;;;;;;;;;;;;;;;5037405;28;19927;-87
2023/05/22 12:00:22;;;;;;;;;;;;;;;;;;5043528;28;19925;-87
2023/05/22 12:03:08;;;;;;;;;;;;;;;;;;5045357;28;19921;-87
2023/05/22 12:05:55;;;;;;;;;;;;;;;;;;5030084;28;19931;-87
2023/05/22 12:08:42;;;;;;;;;;;;;;;;;;5032085;28;19948;-87
2023/05/22 12:11:28;;;;;;;;;;;;;;;;;;5042996;28;19927;-85
2023/05/22 12:14:15;;;;;;;;;;;;;;;;;;5040942;28;19924;-86
2023/05/22 12:17:05;;;;;;;;;;;;;;;;;;5037535;28;19936;-87
2023/05/22 12:19:51;;;;;;;;;;;;;;;;;;5047721;28;20373;-86
2023/05/22 12:22:38;;;;;;;;;;;;;;;;;;5039640;28;19923;-85
2023/05/22 12:25:24;;;;;;;;;;;;;;;;;;5034059;28;19917;-85
2023/05/22 12:28:11;;;;;;;;;;;;;;;;;;5033218;28;19932;-85
2023/05/22 12:30:57;;;;;;;;;;;;;;;;;;5045736;28;19917;-86
2023/05/22 12:33:44;;;;;;;;;;;;;;;;;;5037145;28;20000;-86
2023/05/22 12:36:31;;;;;;;;;;;;;;;;;;5033048;28;19925;-86
2023/05/22 12:39:17;;;;;;;;;;;;;;;;;;5036197;28;20411;-87
2023/05/22 12:42:03;;;;;;;;;;;;;;;;;;5037540;28;19932;-87
2023/05/22 12:44:50;;;;;;;;;;;;;;;;;;5035313;28;19928;-86
2023/05/22 12:47:37;;;;;;;;;;;;;;;;;;5027384;28;20256;-86
2023/05/22 12:50:23;;;;;;;;;;;;;;;;;;5036812;28;19924;-87
2023/05/22 12:53:10;;;;;;;;;;;;;;;;;;5042840;28;19925;-86
2023/05/22 12:55:56;;;;;;;;;;;;;;;;;;5048648;28;20402;-86
2023/05/22 12:58:43;;;;;;;;;;;;;;;;;;5041078;28;19917;-86
2023/05/22 13:01:29;;;;;;;;;;;;;;;;;;5038404;28;19912;-86
2023/05/22 13:04:18;;;;;;;;;;;;;;;;;;5049743;28;19928;-86
2023/05/22 13:07:05;;;;;;;;;;;;;;;;;;5040278;28;19921;-87
2023/05/22 13:09:51;;;;;;;;;;;;;;;;;;5031994;28;19927;-87
2023/05/22 13:12:37;;;;;;;;;;;;;;;;;;5035129;28;20601;-86
2023/05/22 13:15:24;;;;;;;;;;;;;;;;;;5044773;28;19924;-88
2023/05/22 13:18:11;;;;;;;;;;;;;;;;;;5045920;28;19925;-88
2023/05/22 13:20:59;;;;;;;;;;;;;;;;;;5046125;28;19916;-88
2023/05/22 13:23:45;;;;;;;;;;;;;;;;;;5038084;28;20379;-87
2023/05/22 13:26:32;;;;;;;;;;;;;;;;;;5042256;28;19925;-86
2023/05/22 13:29:18;;;;;;;;;;;;;;;;;;5038174;28;20385;-87
2023/05/22 13:32:05;;;;;;;;;;;;;;;;;;5042407;28;19921;-87
2023/05/22 13:34:51;;;;;;;;;;;;;;;;;;5039980;28;19921;-83
2023/05/22 13:37:38;;;;;;;;;;;;;;;;;;5031600;28;19919;-82
2023/05/22 13:40:24;;;;;;;;;;;;;;;;;;5041688;28;19921;-85
2023/05/22 13:43:11;;;;;;;;;;;;;;;;;;5040661;28;19921;-85
2023/05/22 13:45:57;;;;;;;;;;;;;;;;;;5041520;28;20440;-86
2023/05/22 13:48:44;;;;;;;;;;;;;;;;;;5041124;28;19944;-85
2023/05/22 13:51:30;;;;;;;;;;;;;;;;;;5043186;28;19917;-84
2023/05/22 13:54:17;;;;;;;;;;;;;;;;;;5044374;28;19921;-86
2023/05/22 13:57:03;;;;;;;;;;;;;;;;;;5042129;28;19925;-85
2023/05/22 13:59:50;;;;;;;;;;;;;;;;;;5043856;28;19923;-85
2023/05/22 14:02:37;;;;;;;;;;;;;;;;;;5038583;28;19924;-86
2023/05/22 14:05:23;;;;;;;;;;;;;;;;;;5041958;28;19923;-86
2023/05/22 14:08:10;;;;;;;;;;;;;;;;;;5045259;28;20332;-86
2023/05/22 14:10:56;;;;;;;;;;;;;;;;;;5035861;28;19913;-85
2023/05/22 14:13:43;;;;;;;;;;;;;;;;;;5045420;28;20573;-86
2023/05/22 14:16:29;;;;;;;;;;;;;;;;;;5041434;28;19935;-89
2023/05/22 14:19:16;;;;;;;;;;;;;;;;;;5046515;28;19913;-86
2023/05/22 14:22:02;;;;;;;;;;;;;;;;;;5044033;28;19912;-87
2023/05/22 14:24:49;;;;;;;;;;;;;;;;;;5046859;28;20008;-86
2023/05/22 14:27:35;;;;;;;;;;;;;;;;;;5033068;28;19921;-86
2023/05/22 14:30:22;;;;;;;;;;;;;;;;;;5050250;28;19924;-85
2023/05/22 14:33:08;;;;;;;;;;;;;;;;;;5052084;28;19916;-86
2023/05/22 14:35:55;;;;;;;;;;;;;;;;;;5055801;28;19921;-86
2023/05/22 14:38:41;;;;;;;;;;;;;;;;;;5041822;28;19928;-85
2023/05/22 14:41:28;;;;;;;;;;;;;;;;;;5050329;28;19928;-85
2023/05/22 14:44:14;;;;;;;;;;;;;;;;;;5040196;28;19920;-87
2023/05/22 14:47:01;;;;;;;;;;;;;;;;;;5043436;28;19944;-83
2023/05/22 14:49:47;;;;;;;;;;;;;;;;;;5049134;28;19925;-82
2023/05/22 14:52:34;;;;;;;;;;;;;;;;;;5045712;28;19921;-82
2023/05/22 14:55:20;;;;;;;;;;;;;;;;;;5044153;28;19920;-83
2023/05/22 14:58:07;;;;;;;;;;;;;;;;;;5039397;28;19920;-83
2023/05/22 15:00:53;;;;;;;;;;;;;;;;;;5042609;28;19917;-83
2023/05/22 15:03:40;;;;;;;;;;;;;;;;;;5041170;28;20400;-82
2023/05/22 15:06:26;;;;;;;;;;;;;;;;;;5031442;28;19929;-82
2023/05/22 15:09:12;;;;;;;;;;;;;;;;;;5037881;28;19937;-82
2023/05/22 15:11:59;;;;;;;;;;;;;;;;;;5042340;28;20377;-82
2023/05/22 15:14:46;;;;;;;;;;;;;;;;;;5049441;28;20501;-83
2023/05/22 15:17:32;;;;;;;;;;;;;;;;;;5043621;28;19945;-82
2023/05/22 15:20:18;;;;;;;;;;;;;;;;;;5042986;28;19928;-83
2023/05/22 15:23:05;;;;;;;;;;;;;;;;;;5048250;28;19913;-84
2023/05/22 15:25:52;;;;;;;;;;;;;;;;;;5047632;28;19955;-83
2023/05/22 15:28:38;;;;;;;;;;;;;;;;;;5037858;28;19925;-82
2023/05/22 15:31:25;;;;;;;;;;;;;;;;;;5041343;28;19940;-86
2023/05/22 15:34:11;;;;;;;;;;;;;;;;;;5034842;28;19920;-81
2023/05/22 15:36:58;;;;;;;;;;;;;;;;;;5040651;28;19921;-83
2023/05/22 15:39:44;;;;;;;;;;;;;;;;;;5036957;28;19921;-81
2023/05/22 15:42:31;;;;;;;;;;;;;;;;;;5042546;28;20569;-80
2023/05/22 15:45:17;;;;;;;;;;;;;;;;;;5038726;28;19925;-81
2023/05/22 15:48:04;;;;;;;;;;;;;;;;;;5046423;28;19935;-79
2023/05/22 15:50:50;;;;;;;;;;;;;;;;;;5036561;28;19921;-79
2023/05/22 15:53:37;;;;;;;;;;;;;;;;;;5035262;28;19917;-79
2023/05/22 15:56:23;;;;;;;;;;;;;;;;;;5050846;28;19960;-80
2023/05/22 15:59:10;;;;;;;;;;;;;;;;;;5039398;28;19916;-79
2023/05/22 16:01:56;;;;;;;;;;;;;;;;;;5039648;28;20485;-79
2023/05/22 16:04:43;;;;;;;;;;;;;;;;;;5037104;28;19927;-79
2023/05/22 16:07:29;;;;;;;;;;;;;;;;;;5045685;28;20319;-85
2023/05/22 16:10:16;;;;;;;;;;;;;;;;;;5050584;28;19939;-83
2023/05/22 16:13:04;;;;;;;;;;;;;;;;;;5040030;28;19936;-82
2023/05/22 16:15:50;;;;;;;;;;;;;;;;;;5031594;28;19929;-85
2023/05/22 16:18:37;;;;;;;;;;;;;;;;;;5023062;28;19929;-84
2023/05/22 16:21:23;;;;;;;;;;;;;;;;;;5024588;28;19928;-85
2023/05/22 16:24:10;;;;;;;;;;;;;;;;;;5020653;28;19917;-83
2023/05/22 16:26:56;;;;;;;;;;;;;;;;;;5024130;28;19925;-84
2023/05/22 16:29:42;;;;;;;;;;;;;;;;;;5020015;28;19921;-84
2023/05/22 16:32:29;;;;;;;;;;;;;;;;;;5022372;28;19931;-84
2023/05/22 16:35:17;;;;;;;;;;;;;;;;;;5023039;28;19924;-85
2023/05/22 16:38:05;;;;;;;;;;;;;;;;;;5037949;28;20380;-82
2023/05/22 16:40:53;;;;;;;;;;;;;;;;;;5040514;28;19931;-84
2023/05/22 16:43:40;;;;;;;;;;;;;;;;;;5032395;28;19921;-84
2023/05/22 16:46:26;;;;;;;;;;;;;;;;;;5039418;28;20058;-85
2023/05/22 16:49:13;;;;;;;;;;;;;;;;;;5036531;28;20293;-84
2023/05/22 16:51:59;;;;;;;;;;;;;;;;;;5036787;28;19921;-84
2023/05/22 16:54:46;;;;;;;;;;;;;;;;;;5039223;28;19921;-84
2023/05/22 16:57:32;;;;;;;;;;;;;;;;;;5034673;28;19991;-83
2023/05/22 17:00:19;;;;;;;;;;;;;;;;;;5041463;28;20532;-85
2023/05/22 17:03:06;;;;;;;;;;;;;;;;;;5034224;28;19913;-83
2023/05/22 17:05:52;;;;;;;;;;;;;;;;;;5030370;28;19921;-84
2023/05/22 17:08:39;;;;;;;;;;;;;;;;;;5040634;28;19925;-84
2023/05/22 17:11:26;;;;;;;;;;;;;;;;;;5038606;28;19920;-85
2023/05/22 17:14:12;;;;;;;;;;;;;;;;;;5038621;28;19921;-84
2023/05/22 17:16:59;;;;;;;;;;;;;;;;;;5035960;28;19936;-84
2023/05/22 17:19:45;;;;;;;;;;;;;;;;;;5040446;28;19920;-84
2023/05/22 17:22:32;;;;;;;;;;;;;;;;;;5031074;28;19918;-83
2023/05/22 17:25:18;;;;;;;;;;;;;;;;;;5039769;28;19917;-85
2023/05/22 17:28:05;;;;;;;;;;;;;;;;;;5036460;28;19925;-84
2023/05/22 17:30:51;;;;;;;;;;;;;;;;;;5037749;28;20269;-81
2023/05/22 17:33:38;;;;;;;;;;;;;;;;;;5034887;28;19918;-81
2023/05/22 17:36:24;;;;;;;;;;;;;;;;;;5020291;28;19932;-81
2023/05/22 17:39:11;;;;;;;;;;;;;;;;;;5028889;28;19926;-80
2023/05/22 17:41:57;;;;;;;;;;;;;;;;;;5038383;28;19923;-80
2023/05/22 17:44:44;;;;;;;;;;;;;;;;;;5038026;28;19921;-78
2023/05/22 17:47:30;;;;;;;;;;;;;;;;;;5038830;28;20312;-81
2023/05/22 17:50:17;;;;;;;;;;;;;;;;;;5044306;28;19927;-81
2023/05/22 17:53:03;;;;;;;;;;;;;;;;;;5035184;28;20400;-80
2023/05/22 17:55:51;;;;;;;;;;;;;;;;;;5036222;28;19917;-80
2023/05/22 17:58:37;;;;;;;;;;;;;;;;;;5030681;28;19922;-80
2023/05/22 18:01:25;;;;;;;;;;;;;;;;;;5046407;28;19916;-79
2023/05/22 18:04:12;;;;;;;;;;;;;;;;;;5042903;28;19924;-81
2023/05/22 18:06:58;;;;;;;;;;;;;;;;;;5036103;28;19939;-79
2023/05/22 18:09:45;;;;;;;;;;;;;;;;;;5033015;28;19917;-82
2023/05/22 18:12:31;;;;;;;;;;;;;;;;;;5037829;28;19955;-80
2023/05/22 18:15:18;;;;;;;;;;;;;;;;;;5033439;28;19928;-80
2023/05/22 18:18:04;;;;;;;;;;;;;;;;;;5040400;28;19916;-79
2023/05/22 18:20:52;;;;;;;;;;;;;;;;;;5041241;28;19920;-79
2023/05/22 18:23:38;;;;;;;;;;;;;;;;;;5038641;28;19921;-78
2023/05/22 18:26:25;;;;;;;;;;;;;;;;;;5039985;28;19932;-79
2023/05/22 18:29:12;;;;;;;;;;;;;;;;;;5026080;28;20466;-81
2023/05/22 18:31:58;;;;;;;;;;;;;;;;;;5043085;28;19925;-81
2023/05/22 18:34:45;;;;;;;;;;;;;;;;;;5040105;28;19921;-82
2023/05/22 18:37:31;;;;;;;;;;;;;;;;;;5043024;28;20375;-82
2023/05/22 18:40:18;;;;;;;;;;;;;;;;;;5039471;28;20377;-81
2023/05/22 18:43:04;;;;;;;;;;;;;;;;;;5040147;28;19972;-81
2023/05/22 18:45:51;;;;;;;;;;;;;;;;;;5040183;28;19921;-80
2023/05/22 18:48:37;;;;;;;;;;;;;;;;;;5032225;28;19929;-79
2023/05/22 18:51:24;;;;;;;;;;;;;;;;;;5031484;28;19917;-79
2023/05/22 18:54:11;;;;;;;;;;;;;;;;;;5038925;28;20487;-79
2023/05/22 18:56:57;;;;;;;;;;;;;;;;;;5025436;28;19929;-80